Bruno Oliveira

Chefscout - Atlético Mineiro
4 Apr 2027
Sonntag
Verarbeitung

Persönlichkeit

Anpassungsfähigkeit (12) Ehrgeiz (14) Kontroverse (13) Loyalität (1) Druck (1) Professionalität (17) Fairness (13) Temperament (11)

Profil

Trainerstil Demokratisch
Lizenz Kontinentale B
Entschlossenheit 10
Menschenführung 15
Motivation 14
Disziplin 15
Arbeitszufriedenheit
91%
Ermüdung
0%
Rolle Chefscout
Gehalt 91.4K p/W
Vertrag 14.03.2028

Leistung

Verhalten Gut
Trainingseffektivität
48%
Spielerentwicklung
75%
Verletzungsprävention
60%
Taktische Umsetzung
75%

Letzte Ereignisse

Empfahl ein Transferziel jetzt
Empfahl ein Transferziel jetzt
Empfahl ein Transferziel jetzt
Nahm an einer Scouting-Besprechung teil jetzt
Empfahl ein Transferziel jetzt
Spieler begutachtet jetzt
Spieler begutachtet jetzt
Spieler begutachtet jetzt

Aktuell beobachtet

208
Spieler Verein Status Fähigkeit Vertrauen Beobachtet Zuletzt beobachtet Letzte Stimme
James Trafford Leeds United Aktiv 148 / 139 40% 9 02.04.2027 -
Juan Diego Castillo Vitoria Guimaraes Aktiv 126 / 113 40% 5 02.04.2027 -
Lucas Chevalier Paris Saint-Germain Aktiv 163 / 166 40% 3 02.04.2027 -
Jamie Cumming Oxford United Aktiv 126 / 127 40% 4 01.04.2027 -
Samuel Soares Benfica Aktiv 128 / 136 40% 5 01.04.2027 -
Rodrigo Zalazar Sporting CP Aktiv 152 / 157 40% 4 01.04.2027 -
Nico Paz Como Aktiv 154 / 158 40% 2 01.04.2027 -
Leo Kokubo Sint-Truiden Aktiv 123 / 113 40% 4 01.04.2027 -
Kevin Schade Brentford Aktiv 148 / 141 40% 1 01.04.2027 -
Bernardo Fontes Braga Aktiv 128 / 133 40% 9 31.03.2027 -
Sam Tickle Wigan Athletic Aktiv 135 / 119 40% 5 31.03.2027 -
Bilal Bayazıt Kayserispor Aktiv 123 / 111 40% 2 31.03.2027 -
Tom Fellows Southampton Aktiv 138 / 121 40% 2 30.03.2027 -
Jordan Holsgrove Estoril Praia Aktiv 126 / 128 40% 2 30.03.2027 -
Yankuba Minteh Brighton Aktiv 147 / 149 40% 1 30.03.2027 -
Bart Verbruggen Brighton Aktiv 158 / 149 40% 2 27.03.2027 -
Edoardo Corvi Parma Aktiv 135 / 143 40% 3 27.03.2027 -
Jonathan Fischer FC Metz Aktiv 134 / 122 40% 1 27.03.2027 -
Cezary Miszta Rio Ave Aktiv 129 / 141 40% 5 23.03.2027 -
Senne Lammens Manchester United Aktiv 147 / 150 40% 7 23.03.2027 -
Rodrigo Pinheiro Famalicao Aktiv 128 / 123 40% 3 23.03.2027 -
Brian Rodríguez Club America Aktiv 137 / 116 40% 5 23.03.2027 -
Luis Quintero Torreense Aktiv 129 / 114 40% 3 23.03.2027 -
Radek Vítek Middlesbrough Aktiv 133 / 152 40% 8 22.03.2027 -
Elia Caprile Cagliari Aktiv 145 / 158 40% 4 21.03.2027 -
Axel Alderweireld KV Oostende Aktiv 139 / 155 40% 1 21.03.2027 -
Ander Barrenetxea Real Sociedad Aktiv 154 / 146 40% 3 20.03.2027 -
Mohamed-Ali Cho Hull City Aktiv 139 / 140 40% 2 20.03.2027 -
Georginio Rutter Brighton Aktiv 149 / 159 40% 1 20.03.2027 -
Matthieu Epolo Standard Liege Aktiv 125 / 120 40% 2 18.03.2027 -
Marco Carnesecchi Atalanta Aktiv 157 / 147 40% 4 17.03.2027 -
George Wickens Lincoln City Aktiv 114 / 118 40% 2 17.03.2027 -
Mandla Jali SuperSport United Aktiv 122 / 118 40% 2 16.03.2027 -
Yehvann Diouf OGC Nice Aktiv 138 / 137 40% 3 16.03.2027 -
Lorenzo Palmisani Frosinone Aktiv 128 / 121 40% 2 16.03.2027 -
Pau Víctor Braga Aktiv 134 / 131 40% 10 15.03.2027 -
Brennan Johnson Everton Aktiv 148 / 145 40% 2 15.03.2027 -
Heorhii Yermakov Metalist Aktiv 114 / 114 40% 1 15.03.2027 -
Chiquinho Alverca Aktiv 135 / 123 40% 2 14.03.2027 -
Efraín Álvarez Guadalajara Aktiv 136 / 135 40% 2 14.03.2027 -
Abraham Marcus Estrela da Amadora Aktiv 126 / 116 40% 1 14.03.2027 -
Andreas Jungdal Westerlo Aktiv 121 / 131 40% 1 13.03.2027 -
Loum Tchaouna Coventry City Aktiv 145 / 131 40% 2 10.03.2027 -
Oleksandr Saputin Zorya Aktiv 121 / 131 40% 4 10.03.2027 -
Michael Cooper Sheffield United Aktiv 137 / 129 40% 3 10.03.2027 -
César Huerta Pumas UNAM Aktiv 133 / 113 40% 1 10.03.2027 -
Mario Dorgeles Braga Aktiv 138 / 129 40% 10 09.03.2027 -
Jack Rudoni Coventry City Aktiv 133 / 129 40% 3 09.03.2027 -
Maximiliano Araújo Sporting CP Aktiv 149 / 150 40% 2 09.03.2027 -
Mile Svilar AS Roma Aktiv 161 / 150 40% 2 08.03.2027 -
Heorhii Sudakov Benfica Aktiv 148 / 137 40% 4 07.03.2027 -
Nicolas Jackson Aston Villa Aktiv 153 / 153 40% 1 07.03.2027 -
Carl Rushworth Coventry City Aktiv 140 / 134 40% 4 06.03.2027 -
Josh Keeley Luton Town Aktiv 130 / 114 40% 3 06.03.2027 -
Majid Dejagah Gostaresh Foulad Aktiv 125 / 136 40% 2 04.03.2027 -
Víctor Gómez Braga Aktiv 136 / 138 40% 4 04.03.2027 -
Gonzalo Fulham Aktiv 145 / 158 40% 1 04.03.2027 -
Cesar Corona Veracruz Aktiv 139 / 136 40% 7 28.02.2027 -
Jaden Philogene Ipswich Town Aktiv 144 / 133 40% 4 28.02.2027 -
Helinho Toluca Aktiv 127 / 141 40% 2 28.02.2027 -
Julio Enciso Ipswich Town Aktiv 150 / 149 40% 6 27.02.2027 -
Marcelo Allende Mamelodi Sundowns Aktiv 128 / 123 40% 3 27.02.2027 -
Antonio Gomis Vizela Aktiv 116 / 113 40% 3 25.02.2027 -
Mads Hermansen West Ham United Aktiv 140 / 126 40% 2 25.02.2027 -
Kostantis Tzolakis Hull City Aktiv 137 / 150 40% 1 23.02.2027 -
Đorđe Petrović Bournemouth Aktiv 152 / 157 40% 4 22.02.2027 -
Patrick Sequeira Casa Pia Aktiv 123 / 121 40% 3 21.02.2027 -
Robin Roefs Sunderland Aktiv 146 / 135 40% 3 20.02.2027 -
Lazar Carević Famalicao Aktiv 133 / 120 40% 3 15.02.2027 -
Pablo Solari Spartak Moscow Aktiv 129 / 136 40% 2 13.02.2027 -
Alan Varela Porto Aktiv 143 / 151 40% 2 10.02.2027 -
Moussa Diaby Al-Ittihad Aktiv 143 / 133 40% 7 10.02.2027 -
Iñaki Peña Panathinaikos Aktiv 142 / 151 40% 1 09.02.2027 -
Alan KAA Gent Aktiv 126 / 134 40% 4 08.02.2027 -
Geny Sporting CP Aktiv 145 / 136 40% 5 08.02.2027 -
Jakub Stolarczyk Leicester City Aktiv 138 / 130 40% 3 05.02.2027 -
Ruslan Neshcheret Dynamo Kyiv Aktiv 117 / 125 40% 1 05.02.2027 -
Grégoire Coudert Burnley Aktiv 130 / 117 40% 2 04.02.2027 -
Santi García Gil Vicente Aktiv 136 / 131 40% 3 02.02.2027 -
Carlos Vicente Birmingham Aktiv 142 / 146 40% 1 02.02.2027 -
Robin Risser RC Lens Aktiv 140 / 140 40% 1 02.02.2027 -
Anthony Patterson Wrexham Aktiv 132 / 124 40% 1 01.02.2027 -
Yuri Alberto Corinthians Aktiv 145 / 141 40% 16 30.01.2027 -
Reiss Nelson AC Milan Aktiv 142 / 152 40% 2 30.01.2027 -
Percy Erasmus SuperSport United Aktiv 127 / 136 40% 2 30.01.2027 -
Gabri Veiga Porto Aktiv 155 / 146 40% 6 29.01.2027 -
Haissem Hassan Bloemfontein Celtic Aktiv 140 / 138 40% 5 25.01.2027 -
Henry Mosquera Bragantino Aktiv 132 / 133 40% 5 24.01.2027 -
Noni Madueke Arsenal Aktiv 152 / 143 40% 1 24.01.2027 -
Morgan Gibbs-White Nottingham Forest Aktiv 150 / 162 40% 1 23.01.2027 -
Leonardo Lelo Braga Aktiv 128 / 138 40% 1 23.01.2027 -
Marcel Ruiz Toluca Aktiv 150 / 139 40% 4 20.01.2027 -
Borja Sainz Porto Aktiv 146 / 141 40% 2 17.01.2027 -
Alberto Costa Porto Aktiv 144 / 135 40% 2 17.01.2027 -
Marquinhos Spartak Moscow Aktiv 130 / 127 40% 3 15.01.2027 -
Nuno Moreira Vasco da Gama Aktiv 134 / 136 40% 1 15.01.2027 -
Andreas Schjelderup Benfica Aktiv 141 / 149 40% 3 14.01.2027 -
Mason Greenwood Fenerbahce Aktiv 162 / 146 40% 5 09.01.2027 -
Yanis Begraoui Estoril Praia Aktiv 129 / 134 40% 3 28.12.2026 -
Enzo Barrenechea Benfica Aktiv 151 / 139 40% 3 28.12.2026 -
Gianluca Prestianni Benfica Aktiv 136 / 129 40% 4 26.12.2026 -
Rafik Guitane Estoril Praia Aktiv 132 / 130 40% 2 24.12.2026 -
Iván Fresneda Sporting CP Aktiv 134 / 144 40% 2 22.12.2026 -
Ali Ahmed Norwich City Aktiv 130 / 136 40% 1 20.12.2026 -
Daniel Bragança Sporting CP Aktiv 137 / 132 40% 3 18.12.2026 -
Callum Hudson-Odoi Nottingham Forest Aktiv 150 / 140 40% 1 13.12.2026 -
Agustín Palavecino Cruz Azul Verloren 134 / 130 40% 2 12.12.2026 -
Marquinhos Spartak Moscow Verloren 138 / 137 40% 1 12.12.2026 -
Luciano Juba Bahia Aktiv 134 / 123 40% 1 08.12.2026 -
Iván Romero Levante Aktiv 142 / 137 40% 4 07.12.2026 -
Lucca Ceará Aktiv 114 / 115 83% 1 07.12.2026 Befürworten
Adriano Bertaccini Anderlecht Aktiv 124 / 122 40% 1 07.12.2026 -
Germán Valera Elche Aktiv 136 / 148 40% 2 04.12.2026 -
Karl Etta Eyong Levante Aktiv 145 / 135 40% 1 04.12.2026 -
José Paradela Cruz Azul Verloren 138 / 126 40% 1 03.12.2026 -
Luiz Henrique Zenit Aktiv 142 / 143 68% 1 01.12.2026 Befürworten
José Paradela Cruz Azul Verloren 137 / 137 66% 1 01.12.2026 -
Paulinho Palmeiras Aktiv 140 / 140 66% 1 01.12.2026 Befürworten
Thiago Almada River Plate Aktiv 145 / 146 69% 1 01.12.2026 Befürworten
Alexis Vega Toluca Aktiv 154 / 131 40% 8 30.11.2026 -
Roberto Fernández Braga Aktiv 136 / 148 40% 8 30.11.2026 -
Beto Everton Aktiv 128 / 129 40% 1 29.11.2026 -
Jorge De Frutos Rayo Vallecano Aktiv 146 / 153 40% 2 28.11.2026 -
Yoane Wissa Newcastle United Aktiv 143 / 150 40% 5 27.11.2026 -
George Hirst Stoke City Aktiv 135 / 131 40% 5 27.11.2026 -
Andrés Martín Racing Santander Aktiv 134 / 145 40% 3 27.11.2026 -
Jason Januzaj Mouscron Aktiv 150 / 138 40% 13 26.11.2026 -
Toni Martínez Alavés Aktiv 139 / 150 40% 4 24.11.2026 -
Michy Fellaini KV Oostende Verloren 139 / 146 40% 3 24.11.2026 -
Pedro Flamengo Aktiv 148 / 136 40% 10 23.11.2026 Beobachten
Vitor Roque Palmeiras Aktiv 137 / 151 40% 4 22.11.2026 -
Dodi Lukébakio Benfica Aktiv 145 / 153 40% 4 22.11.2026 -
Fotis Ioannidis Sporting CP Aktiv 141 / 147 40% 3 22.11.2026 -
Leandro Trossard Besiktas Aktiv 152 / 152 40% 7 21.11.2026 -
Steven Bergwijn Al-Ittihad Aktiv 149 / 153 40% 5 21.11.2026 -
Troy Parrott Betis Aktiv 141 / 146 40% 4 19.11.2026 -
Abel Ruiz Girona Aktiv 137 / 151 40% 2 19.11.2026 -
Mahmoud Al Bloushi Al Shabab Aktiv 145 / 143 40% 6 15.11.2026 -
Thierno Barry Everton Aktiv 138 / 131 40% 2 14.11.2026 -
Leo Román Deportivo La Coruña Aktiv 149 / 136 40% 1 11.11.2026 -
Liam Delap Nottingham Forest Aktiv 136 / 156 40% 1 08.11.2026 -
Ángel Correa River Plate Verloren 142 / 134 40% 7 07.11.2026 -
Luis Suárez Sporting CP Aktiv 159 / 141 40% 1 07.11.2026 -
Taiwo Awoniyi Coventry City Aktiv 130 / 140 40% 3 06.11.2026 -
Jonas Wind Braga Aktiv 141 / 130 40% 2 05.11.2026 -
Eddie Nketiah Crystal Palace Aktiv 136 / 144 40% 1 05.11.2026 -
Christantus Uche Getafe Aktiv 129 / 150 40% 1 04.11.2026 -
Axel Openda KV Oostende Aktiv 138 / 131 40% 1 02.11.2026 -
Umar Sadiq Valencia Aktiv 135 / 129 40% 1 31.10.2026 -
Gorka Guruzeta Athletic Bilbao Aktiv 149 / 135 40% 3 30.10.2026 -
Dani Raba Valencia Aktiv 131 / 120 40% 1 30.10.2026 -
Alexander Sørloth Atlético Madrid Aktiv 144 / 141 40% 4 29.10.2026 -
Musa Barrow Al-Khaleej Aktiv 145 / 135 40% 3 28.10.2026 -
Dávid Strelec Middlesbrough Aktiv 134 / 146 40% 1 28.10.2026 -
Santiago Mina VfL Wolfsburg Aktiv 136 / 135 40% 1 25.10.2026 -
Randal Kolo Muani Juventus Aktiv 153 / 155 40% 1 24.10.2026 -
Wilson Isidor Sunderland Aktiv 139 / 141 40% 1 22.10.2026 -
Kerem Aktürkoğlu Fenerbahce Aktiv 143 / 138 40% 8 21.10.2026 -
Maroan Sannadi Athletic Bilbao Aktiv 136 / 139 40% 1 20.10.2026 -
Lorenzo Colombo Genoa Aktiv 131 / 126 40% 1 19.10.2026 -
Dwight McNeil Crystal Palace Aktiv 145 / 149 40% 3 17.10.2026 -
Gabriel Brazão Santos Aktiv 135 / 127 40% 2 16.10.2026 -
Andriy Lunin Real Madrid Aktiv 157 / 164 40% 1 16.10.2026 -
Youssef En-Nesyri Al-Ittihad Aktiv 137 / 127 40% 6 14.10.2026 -
Enes Ünal Getafe Aktiv 143 / 128 40% 1 12.10.2026 -
Esteban Lepaul Stade Rennais Aktiv 143 / 148 40% 1 12.10.2026 -
Carlos Vinícius Grêmio Aktiv 133 / 135 40% 6 11.10.2026 -
Matheus Mendes Alverca Aktiv 111 / 115 40% 2 11.10.2026 -
Arijanet Murić Sassuolo Aktiv 136 / 134 40% 1 11.10.2026 -
Brian Brobbey Sunderland Aktiv 133 / 130 40% 1 06.10.2026 -
Lukas Jensen Millwall Aktiv 124 / 101 40% 1 06.10.2026 -
Adriel Torreense Aktiv 111 / 113 40% 1 05.10.2026 -
Alexey Batrakov Galatasaray Aktiv 141 / 152 40% 5 04.10.2026 -
Ricardo Pepi PSV Aktiv 137 / 134 40% 4 04.10.2026 -
Che Adams Torino Aktiv 145 / 126 40% 4 02.10.2026 -
Yuma Suzuki Kashima Antlers Aktiv 131 / 139 40% 4 02.10.2026 -
Carlos Miguel Palmeiras Aktiv 132 / 119 40% 2 01.10.2026 -
Danilo Botafogo Aktiv 142 / 129 40% 1 01.10.2026 -
Alex Luna Instituto Aktiv 132 / 127 40% 1 01.10.2026 -
Julián Quiñones Al-Qadisiyah Aktiv 144 / 131 40% 4 27.09.2026 -
Yoan Bonny Inter Aktiv 149 / 155 40% 3 27.09.2026 -
Wesley Saïd RC Lens Aktiv 128 / 131 40% 2 27.09.2026 -
Leo Ceara Kashima Antlers Aktiv 139 / 122 40% 2 26.09.2026 -
Jens Odgaard Bologna Aktiv 139 / 136 40% 1 21.09.2026 -
Akor Adams Venezia Aktiv 145 / 151 40% 5 17.09.2026 -
Figueiredo Alverca Aktiv 119 / 118 40% 1 15.09.2026 -
Breel Embolo Brighton Aktiv 144 / 144 40% 1 13.09.2026 -
Nathan Trott Cardiff City Aktiv 120 / 107 40% 1 12.09.2026 -
Matías Fernández-Pardo LOSC Lille Aktiv 139 / 154 40% 1 07.09.2026 -
Ivan Toney Al-Ahli Aktiv 152 / 144 40% 2 06.09.2026 -
Roman Celentano FC Cincinnati Aktiv 123 / 134 40% 1 06.09.2026 -
Folarin Balogun Monaco Aktiv 139 / 124 40% 1 02.09.2026 -
Hugo Souza Corinthians Aktiv 132 / 134 40% 1 26.08.2026 -
Kasper Dolberg Ajax Aktiv 131 / 153 40% 2 20.08.2026 -
Matteo Cancellieri Lazio Aktiv 135 / 123 40% 1 20.08.2026 -
Tomáš Chorý Slavia Prague Aktiv 131 / 154 40% 1 18.08.2026 -
Ricardo Horta Braga Aktiv 140 / 140 40% 1 15.08.2026 -
Soufiane Rahimi Al Ain Aktiv 131 / 128 40% 1 15.08.2026 -
Fernando Tapia Club America Aktiv 128 / 113 40% 1 10.08.2026 -
Felipe Zenobio Tigre Aktiv 124 / 123 40% 1 10.08.2026 -
Giovanni Simeone Torino Aktiv 128 / 140 40% 2 07.08.2026 -
Barış Alper Yılmaz Galatasaray Aktiv 143 / 150 40% 1 05.08.2026 -
Tim Lemperle TSG Hoffenheim Aktiv 140 / 127 40% 1 05.08.2026 -
Jean-Luc Morin Tours Aktiv 131 / 133 40% 1 04.08.2026 -
Nuno Santos Sporting CP Aktiv 133 / 124 40% 1 03.08.2026 -
Rodrigo Garro Corinthians Aktiv 130 / 131 40% 1 03.08.2026 -
Fredrik Aursnes Benfica Aktiv 154 / 152 40% 1 02.08.2026 -
Petar Musa FC Dallas Aktiv 129 / 133 40% 1 02.08.2026 -